sensor_id;sensor_type;location;lat;lon;timestamp;temperature;humidity
35804;DHT22;21924;51.934;7.414;2024-03-08T00:01:39;2.80;99.90
35804;DHT22;21924;51.934;7.414;2024-03-08T00:04:24;2.80;99.90
35804;DHT22;21924;51.934;7.414;2024-03-08T00:07:08;2.70;99.90
35804;DHT22;21924;51.934;7.414;2024-03-08T00:09:53;2.70;99.90
35804;DHT22;21924;51.934;7.414;2024-03-08T00:12:38;2.80;99.90
35804;DHT22;21924;51.934;7.414;2024-03-08T00:15:22;2.80;99.90
35804;DHT22;21924;51.934;7.414;2024-03-08T00:18:06;2.80;99.90
35804;DHT22;21924;51.934;7.414;2024-03-08T00:20:51;2.70;99.90
35804;DHT22;21924;51.934;7.414;2024-03-08T00:23:35;2.70;99.90
35804;DHT22;21924;51.934;7.414;2024-03-08T00:26:21;2.60;99.90
35804;DHT22;21924;51.934;7.414;2024-03-08T00:29:05;2.60;99.90
35804;DHT22;21924;51.934;7.414;2024-03-08T00:31:51;2.60;99.90
35804;DHT22;21924;51.934;7.414;2024-03-08T00:34:35;2.60;99.90
35804;DHT22;21924;51.934;7.414;2024-03-08T00:37:21;2.60;99.90
35804;DHT22;21924;51.934;7.414;2024-03-08T00:40:08;2.50;99.90
35804;DHT22;21924;51.934;7.414;2024-03-08T00:42:53;2.50;99.90
35804;DHT22;21924;51.934;7.414;2024-03-08T00:45:37;2.50;99.90
35804;DHT22;21924;51.934;7.414;2024-03-08T00:48:21;2.50;99.90
35804;DHT22;21924;51.934;7.414;2024-03-08T00:51:05;2.50;99.90
35804;DHT22;21924;51.934;7.414;2024-03-08T00:53:50;2.50;99.90
35804;DHT22;21924;51.934;7.414;2024-03-08T00:56:34;2.50;99.90
35804;DHT22;21924;51.934;7.414;2024-03-08T00:59:19;2.40;99.90
35804;DHT22;21924;51.934;7.414;2024-03-08T01:02:04;2.40;99.90
35804;DHT22;21924;51.934;7.414;2024-03-08T01:04:48;2.40;99.90
35804;DHT22;21924;51.934;7.414;2024-03-08T01:07:33;2.40;99.90
35804;DHT22;21924;51.934;7.414;2024-03-08T01:10:18;2.30;99.90
35804;DHT22;21924;51.934;7.414;2024-03-08T01:13:02;2.30;99.90
35804;DHT22;21924;51.934;7.414;2024-03-08T01:15:46;2.30;99.90
35804;DHT22;21924;51.934;7.414;2024-03-08T01:18:30;2.30;99.90
35804;DHT22;21924;51.934;7.414;2024-03-08T01:21:15;2.30;99.90
35804;DHT22;21924;51.934;7.414;2024-03-08T01:23:59;2.30;99.90
35804;DHT22;21924;51.934;7.414;2024-03-08T01:26:44;2.20;99.90
35804;DHT22;21924;51.934;7.414;2024-03-08T01:29:28;2.20;99.90
35804;DHT22;21924;51.934;7.414;2024-03-08T01:32:16;2.10;99.90
35804;DHT22;21924;51.934;7.414;2024-03-08T01:35:01;2.10;99.90
35804;DHT22;21924;51.934;7.414;2024-03-08T01:37:46;2.10;99.90
35804;DHT22;21924;51.934;7.414;2024-03-08T01:40:32;2.20;99.90
35804;DHT22;21924;51.934;7.414;2024-03-08T01:43:19;2.10;99.90
35804;DHT22;21924;51.934;7.414;2024-03-08T01:46:04;2.10;99.90
35804;DHT22;21924;51.934;7.414;2024-03-08T01:48:49;2.10;99.90
35804;DHT22;21924;51.934;7.414;2024-03-08T01:51:34;2.00;99.90
35804;DHT22;21924;51.934;7.414;2024-03-08T01:54:19;2.00;99.90
35804;DHT22;21924;51.934;7.414;2024-03-08T01:57:03;1.90;99.90
35804;DHT22;21924;51.934;7.414;2024-03-08T01:59:48;2.00;99.90
35804;DHT22;21924;51.934;7.414;2024-03-08T02:02:32;2.00;99.90
35804;DHT22;21924;51.934;7.414;2024-03-08T02:05:18;2.00;99.90
35804;DHT22;21924;51.934;7.414;2024-03-08T02:08:02;1.90;99.90
35804;DHT22;21924;51.934;7.414;2024-03-08T02:10:47;1.90;99.90
35804;DHT22;21924;51.934;7.414;2024-03-08T02:13:31;1.90;99.90
35804;DHT22;21924;51.934;7.414;2024-03-08T02:16:22;2.00;99.90
35804;DHT22;21924;51.934;7.414;2024-03-08T02:19:06;1.90;99.90
35804;DHT22;21924;51.934;7.414;2024-03-08T02:21:53;1.90;99.90
35804;DHT22;21924;51.934;7.414;2024-03-08T02:24:37;2.00;99.90
35804;DHT22;21924;51.934;7.414;2024-03-08T02:27:25;2.00;99.90
35804;DHT22;21924;51.934;7.414;2024-03-08T02:30:09;2.00;99.90
35804;DHT22;21924;51.934;7.414;2024-03-08T02:32:53;2.00;99.90
35804;DHT22;21924;51.934;7.414;2024-03-08T02:35:38;1.90;99.90
35804;DHT22;21924;51.934;7.414;2024-03-08T02:38:22;1.90;99.90
35804;DHT22;21924;51.934;7.414;2024-03-08T02:41:08;1.90;99.90
35804;DHT22;21924;51.934;7.414;2024-03-08T02:43:52;1.90;99.90
35804;DHT22;21924;51.934;7.414;2024-03-08T02:46:37;1.90;99.90
35804;DHT22;21924;51.934;7.414;2024-03-08T02:49:21;1.90;99.90
35804;DHT22;21924;51.934;7.414;2024-03-08T02:52:05;1.90;99.90
35804;DHT22;21924;51.934;7.414;2024-03-08T02:54:49;1.90;99.90
35804;DHT22;21924;51.934;7.414;2024-03-08T02:57:33;1.90;99.90
35804;DHT22;21924;51.934;7.414;2024-03-08T03:00:18;1.90;99.90
35804;DHT22;21924;51.934;7.414;2024-03-08T03:03:03;1.90;99.90
35804;DHT22;21924;51.934;7.414;2024-03-08T03:05:47;1.90;99.90
35804;DHT22;21924;51.934;7.414;2024-03-08T03:08:31;1.80;99.90
35804;DHT22;21924;51.934;7.414;2024-03-08T03:11:16;1.80;99.90
35804;DHT22;21924;51.934;7.414;2024-03-08T03:14:01;1.80;99.90
35804;DHT22;21924;51.934;7.414;2024-03-08T03:16:45;1.80;99.90
35804;DHT22;21924;51.934;7.414;2024-03-08T03:19:29;1.80;99.90
35804;DHT22;21924;51.934;7.414;2024-03-08T03:22:14;1.80;99.90
35804;DHT22;21924;51.934;7.414;2024-03-08T03:24:59;1.80;99.90
35804;DHT22;21924;51.934;7.414;2024-03-08T03:27:44;1.70;99.90
35804;DHT22;21924;51.934;7.414;2024-03-08T03:30:30;1.80;99.90
35804;DHT22;21924;51.934;7.414;2024-03-08T03:33:17;1.70;99.90
35804;DHT22;21924;51.934;7.414;2024-03-08T03:36:02;1.70;99.90
35804;DHT22;21924;51.934;7.414;2024-03-08T03:38:46;1.70;99.90
35804;DHT22;21924;51.934;7.414;2024-03-08T03:41:30;1.70;99.90
35804;DHT22;21924;51.934;7.414;2024-03-08T03:44:15;1.70;99.90
35804;DHT22;21924;51.934;7.414;2024-03-08T03:46:59;1.60;99.90
35804;DHT22;21924;51.934;7.414;2024-03-08T03:49:43;1.60;99.90
35804;DHT22;21924;51.934;7.414;2024-03-08T03:52:29;1.60;99.90
35804;DHT22;21924;51.934;7.414;2024-03-08T03:55:13;1.60;99.90
35804;DHT22;21924;51.934;7.414;2024-03-08T03:57:57;1.60;99.90
35804;DHT22;21924;51.934;7.414;2024-03-08T04:00:42;1.60;99.90
35804;DHT22;21924;51.934;7.414;2024-03-08T04:03:27;1.60;99.90
35804;DHT22;21924;51.934;7.414;2024-03-08T04:06:11;1.50;99.90
35804;DHT22;21924;51.934;7.414;2024-03-08T04:08:55;1.50;99.90
35804;DHT22;21924;51.934;7.414;2024-03-08T04:11:40;1.50;99.90
35804;DHT22;21924;51.934;7.414;2024-03-08T04:14:24;1.50;99.90
35804;DHT22;21924;51.934;7.414;2024-03-08T04:17:08;1.50;99.90
35804;DHT22;21924;51.934;7.414;2024-03-08T04:19:55;1.50;99.90
35804;DHT22;21924;51.934;7.414;2024-03-08T04:22:41;1.50;99.90
35804;DHT22;21924;51.934;7.414;2024-03-08T04:25:25;1.50;99.90
35804;DHT22;21924;51.934;7.414;2024-03-08T04:28:10;1.50;99.90
35804;DHT22;21924;51.934;7.414;2024-03-08T04:30:55;1.50;99.90
35804;DHT22;21924;51.934;7.414;2024-03-08T04:33:40;1.50;99.90
35804;DHT22;21924;51.934;7.414;2024-03-08T04:39:51;1.50;99.90
35804;DHT22;21924;51.934;7.414;2024-03-08T04:42:45;1.50;99.90
35804;DHT22;21924;51.934;7.414;2024-03-08T04:48:34;1.30;99.90
35804;DHT22;21924;51.934;7.414;2024-03-08T04:51:20;1.30;99.90
35804;DHT22;21924;51.934;7.414;2024-03-08T04:54:04;1.30;99.90
35804;DHT22;21924;51.934;7.414;2024-03-08T04:56:52;1.30;99.90
35804;DHT22;21924;51.934;7.414;2024-03-08T04:59:36;1.40;99.90
35804;DHT22;21924;51.934;7.414;2024-03-08T05:02:20;1.40;99.90
35804;DHT22;21924;51.934;7.414;2024-03-08T05:05:06;1.30;99.90
35804;DHT22;21924;51.934;7.414;2024-03-08T05:07:50;1.30;99.90
35804;DHT22;21924;51.934;7.414;2024-03-08T05:10:35;1.30;99.90
35804;DHT22;21924;51.934;7.414;2024-03-08T05:13:19;1.30;99.90
35804;DHT22;21924;51.934;7.414;2024-03-08T05:16:03;1.30;99.90
35804;DHT22;21924;51.934;7.414;2024-03-08T05:18:48;1.30;99.90
35804;DHT22;21924;51.934;7.414;2024-03-08T05:21:32;1.20;99.90
35804;DHT22;21924;51.934;7.414;2024-03-08T05:24:17;1.20;99.90
35804;DHT22;21924;51.934;7.414;2024-03-08T05:27:01;1.30;99.90
35804;DHT22;21924;51.934;7.414;2024-03-08T05:29:47;1.20;99.90
35804;DHT22;21924;51.934;7.414;2024-03-08T05:32:31;1.20;99.90
35804;DHT22;21924;51.934;7.414;2024-03-08T05:35:16;1.20;99.90
35804;DHT22;21924;51.934;7.414;2024-03-08T05:38:00;1.20;99.90
35804;DHT22;21924;51.934;7.414;2024-03-08T05:40:45;1.20;99.90
35804;DHT22;21924;51.934;7.414;2024-03-08T05:43:29;1.20;99.90
35804;DHT22;21924;51.934;7.414;2024-03-08T05:46:15;1.30;99.90
35804;DHT22;21924;51.934;7.414;2024-03-08T05:48:59;1.30;99.90
35804;DHT22;21924;51.934;7.414;2024-03-08T05:51:43;1.20;99.90
35804;DHT22;21924;51.934;7.414;2024-03-08T05:54:28;1.10;99.90
35804;DHT22;21924;51.934;7.414;2024-03-08T05:57:12;1.20;99.90
35804;DHT22;21924;51.934;7.414;2024-03-08T05:59:58;1.20;99.90
35804;DHT22;21924;51.934;7.414;2024-03-08T06:02:42;1.10;99.90
35804;DHT22;21924;51.934;7.414;2024-03-08T06:05:26;1.10;99.90
35804;DHT22;21924;51.934;7.414;2024-03-08T06:08:10;1.10;99.90
35804;DHT22;21924;51.934;7.414;2024-03-08T06:10:55;1.10;99.90
35804;DHT22;21924;51.934;7.414;2024-03-08T06:13:40;1.20;99.90
35804;DHT22;21924;51.934;7.414;2024-03-08T06:16:24;1.20;99.90
35804;DHT22;21924;51.934;7.414;2024-03-08T06:19:08;1.20;99.90
35804;DHT22;21924;51.934;7.414;2024-03-08T06:25:18;1.10;99.90
35804;DHT22;21924;51.934;7.414;2024-03-08T06:35:41;1.30;99.90
35804;DHT22;21924;51.934;7.414;2024-03-08T06:46:59;1.30;99.90
35804;DHT22;21924;51.934;7.414;2024-03-08T06:49:44;1.30;99.90
35804;DHT22;21924;51.934;7.414;2024-03-08T06:52:29;1.30;99.90
35804;DHT22;21924;51.934;7.414;2024-03-08T06:55:13;1.40;99.90
35804;DHT22;21924;51.934;7.414;2024-03-08T06:57:58;1.40;99.90
35804;DHT22;21924;51.934;7.414;2024-03-08T07:00:42;1.40;99.90
35804;DHT22;21924;51.934;7.414;2024-03-08T07:03:26;1.50;99.90
35804;DHT22;21924;51.934;7.414;2024-03-08T07:06:12;1.50;99.90
35804;DHT22;21924;51.934;7.414;2024-03-08T07:08:57;1.60;99.90
35804;DHT22;21924;51.934;7.414;2024-03-08T07:11:43;1.60;99.90
35804;DHT22;21924;51.934;7.414;2024-03-08T07:14:27;1.70;99.90
35804;DHT22;21924;51.934;7.414;2024-03-08T07:17:12;1.70;99.90
35804;DHT22;21924;51.934;7.414;2024-03-08T07:19:56;1.80;99.90
35804;DHT22;21924;51.934;7.414;2024-03-08T07:22:43;1.80;99.90
35804;DHT22;21924;51.934;7.414;2024-03-08T07:25:27;1.80;99.90
35804;DHT22;21924;51.934;7.414;2024-03-08T07:28:13;1.80;99.90
35804;DHT22;21924;51.934;7.414;2024-03-08T07:31:00;2.00;99.90
35804;DHT22;21924;51.934;7.414;2024-03-08T07:33:59;2.20;99.90
35804;DHT22;21924;51.934;7.414;2024-03-08T07:36:43;2.30;99.90
35804;DHT22;21924;51.934;7.414;2024-03-08T07:39:27;2.50;99.90
35804;DHT22;21924;51.934;7.414;2024-03-08T07:42:12;2.50;99.90
35804;DHT22;21924;51.934;7.414;2024-03-08T07:44:56;2.60;99.90
35804;DHT22;21924;51.934;7.414;2024-03-08T07:47:40;2.70;99.90
35804;DHT22;21924;51.934;7.414;2024-03-08T07:50:24;2.70;99.90
35804;DHT22;21924;51.934;7.414;2024-03-08T07:53:08;2.80;99.90
35804;DHT22;21924;51.934;7.414;2024-03-08T07:55:53;2.90;99.90
35804;DHT22;21924;51.934;7.414;2024-03-08T07:58:37;2.90;99.90
35804;DHT22;21924;51.934;7.414;2024-03-08T08:08:26;3.00;99.90
35804;DHT22;21924;51.934;7.414;2024-03-08T08:11:10;3.20;99.90
35804;DHT22;21924;51.934;7.414;2024-03-08T08:13:59;3.20;99.90
35804;DHT22;21924;51.934;7.414;2024-03-08T08:16:45;3.30;99.90
35804;DHT22;21924;51.934;7.414;2024-03-08T08:19:29;3.50;99.90
35804;DHT22;21924;51.934;7.414;2024-03-08T08:22:14;3.60;99.90
35804;DHT22;21924;51.934;7.414;2024-03-08T08:24:58;3.60;99.90
35804;DHT22;21924;51.934;7.414;2024-03-08T08:27:42;3.60;99.90
35804;DHT22;21924;51.934;7.414;2024-03-08T08:30:26;3.50;99.90
35804;DHT22;21924;51.934;7.414;2024-03-08T08:33:11;3.50;99.90
35804;DHT22;21924;51.934;7.414;2024-03-08T08:35:55;3.50;99.90
35804;DHT22;21924;51.934;7.414;2024-03-08T08:38:40;3.60;99.90
35804;DHT22;21924;51.934;7.414;2024-03-08T08:41:27;3.60;99.90
35804;DHT22;21924;51.934;7.414;2024-03-08T08:44:11;3.60;99.90
35804;DHT22;21924;51.934;7.414;2024-03-08T08:46:57;3.70;99.90
35804;DHT22;21924;51.934;7.414;2024-03-08T08:49:42;3.80;99.90
35804;DHT22;21924;51.934;7.414;2024-03-08T08:55:56;3.90;99.90
35804;DHT22;21924;51.934;7.414;2024-03-08T08:58:40;4.00;99.90
35804;DHT22;21924;51.934;7.414;2024-03-08T09:01:26;4.20;99.90
35804;DHT22;21924;51.934;7.414;2024-03-08T09:04:11;4.20;99.90
35804;DHT22;21924;51.934;7.414;2024-03-08T09:06:56;4.30;99.90
35804;DHT22;21924;51.934;7.414;2024-03-08T09:09:41;4.40;99.90
35804;DHT22;21924;51.934;7.414;2024-03-08T09:12:26;4.40;99.90
35804;DHT22;21924;51.934;7.414;2024-03-08T09:15:10;4.50;99.90
35804;DHT22;21924;51.934;7.414;2024-03-08T09:21:20;4.60;99.90
35804;DHT22;21924;51.934;7.414;2024-03-08T09:24:04;4.90;99.90
35804;DHT22;21924;51.934;7.414;2024-03-08T09:26:48;5.00;99.90
35804;DHT22;21924;51.934;7.414;2024-03-08T09:29:32;5.20;99.90
35804;DHT22;21924;51.934;7.414;2024-03-08T09:32:17;5.20;99.90
35804;DHT22;21924;51.934;7.414;2024-03-08T09:35:01;5.30;99.90
35804;DHT22;21924;51.934;7.414;2024-03-08T09:37:45;5.30;99.90
35804;DHT22;21924;51.934;7.414;2024-03-08T09:40:31;5.40;99.90
35804;DHT22;21924;51.934;7.414;2024-03-08T09:43:16;5.60;99.90
35804;DHT22;21924;51.934;7.414;2024-03-08T09:46:02;5.60;99.90
35804;DHT22;21924;51.934;7.414;2024-03-08T09:48:47;5.60;99.90
35804;DHT22;21924;51.934;7.414;2024-03-08T09:51:33;5.80;99.90
35804;DHT22;21924;51.934;7.414;2024-03-08T09:54:18;5.80;99.90
35804;DHT22;21924;51.934;7.414;2024-03-08T09:57:04;5.90;99.90
35804;DHT22;21924;51.934;7.414;2024-03-08T09:59:48;5.90;99.90
35804;DHT22;21924;51.934;7.414;2024-03-08T10:02:32;6.10;99.90
35804;DHT22;21924;51.934;7.414;2024-03-08T10:05:18;6.00;99.90
35804;DHT22;21924;51.934;7.414;2024-03-08T10:08:03;6.10;99.90
35804;DHT22;21924;51.934;7.414;2024-03-08T10:10:50;6.20;99.90
35804;DHT22;21924;51.934;7.414;2024-03-08T10:13:35;6.30;99.90
35804;DHT22;21924;51.934;7.414;2024-03-08T10:16:19;6.40;99.90
35804;DHT22;21924;51.934;7.414;2024-03-08T10:19:06;6.50;99.90
35804;DHT22;21924;51.934;7.414;2024-03-08T10:21:50;6.50;99.90
35804;DHT22;21924;51.934;7.414;2024-03-08T10:24:38;6.50;99.90
35804;DHT22;21924;51.934;7.414;2024-03-08T10:27:22;6.70;99.90
35804;DHT22;21924;51.934;7.414;2024-03-08T10:30:09;6.80;99.90
35804;DHT22;21924;51.934;7.414;2024-03-08T10:32:54;6.90;99.90
35804;DHT22;21924;51.934;7.414;2024-03-08T10:35:38;7.00;99.90
35804;DHT22;21924;51.934;7.414;2024-03-08T10:38:22;7.10;99.90
35804;DHT22;21924;51.934;7.414;2024-03-08T10:41:09;7.10;99.90
35804;DHT22;21924;51.934;7.414;2024-03-08T10:44:08;7.20;99.90
35804;DHT22;21924;51.934;7.414;2024-03-08T10:47:02;7.30;99.90
35804;DHT22;21924;51.934;7.414;2024-03-08T10:49:50;7.40;99.90
35804;DHT22;21924;51.934;7.414;2024-03-08T10:52:35;7.50;99.90
35804;DHT22;21924;51.934;7.414;2024-03-08T10:55:26;7.50;99.90
35804;DHT22;21924;51.934;7.414;2024-03-08T10:58:24;7.70;99.90
35804;DHT22;21924;51.934;7.414;2024-03-08T11:01:12;7.80;99.90
35804;DHT22;21924;51.934;7.414;2024-03-08T11:03:57;7.90;99.90
35804;DHT22;21924;51.934;7.414;2024-03-08T11:06:42;7.90;99.90
35804;DHT22;21924;51.934;7.414;2024-03-08T11:09:34;8.00;99.90
35804;DHT22;21924;51.934;7.414;2024-03-08T11:12:28;8.10;99.90
35804;DHT22;21924;51.934;7.414;2024-03-08T11:15:19;8.10;99.90
35804;DHT22;21924;51.934;7.414;2024-03-08T11:18:03;8.10;99.90
35804;DHT22;21924;51.934;7.414;2024-03-08T11:20:49;8.10;99.90
35804;DHT22;21924;51.934;7.414;2024-03-08T11:23:34;8.30;99.90
35804;DHT22;21924;51.934;7.414;2024-03-08T11:26:19;8.40;99.90
35804;DHT22;21924;51.934;7.414;2024-03-08T11:34:55;8.70;99.90
35804;DHT22;21924;51.934;7.414;2024-03-08T11:37:40;8.80;99.90
35804;DHT22;21924;51.934;7.414;2024-03-08T11:40:24;8.90;99.90
35804;DHT22;21924;51.934;7.414;2024-03-08T11:43:08;8.90;99.90
35804;DHT22;21924;51.934;7.414;2024-03-08T11:46:07;8.80;99.90
35804;DHT22;21924;51.934;7.414;2024-03-08T11:48:54;8.70;99.90
35804;DHT22;21924;51.934;7.414;2024-03-08T11:51:39;8.70;99.90
35804;DHT22;21924;51.934;7.414;2024-03-08T11:54:24;8.80;99.90
35804;DHT22;21924;51.934;7.414;2024-03-08T11:57:08;8.90;99.90
35804;DHT22;21924;51.934;7.414;2024-03-08T11:59:54;9.20;99.90
35804;DHT22;21924;51.934;7.414;2024-03-08T12:02:43;9.40;99.90
35804;DHT22;21924;51.934;7.414;2024-03-08T12:05:34;9.30;99.90
35804;DHT22;21924;51.934;7.414;2024-03-08T12:08:18;9.30;99.90
35804;DHT22;21924;51.934;7.414;2024-03-08T12:11:06;9.20;99.90
35804;DHT22;21924;51.934;7.414;2024-03-08T12:13:51;9.10;99.90
35804;DHT22;21924;51.934;7.414;2024-03-08T12:16:38;9.00;99.90
35804;DHT22;21924;51.934;7.414;2024-03-08T12:19:22;8.90;99.90
35804;DHT22;21924;51.934;7.414;2024-03-08T12:22:07;9.00;99.90
35804;DHT22;21924;51.934;7.414;2024-03-08T12:25:05;9.10;99.90
35804;DHT22;21924;51.934;7.414;2024-03-08T12:27:54;9.10;99.90
35804;DHT22;21924;51.934;7.414;2024-03-08T12:30:45;9.30;99.90
35804;DHT22;21924;51.934;7.414;2024-03-08T12:33:30;9.40;99.90
35804;DHT22;21924;51.934;7.414;2024-03-08T12:36:15;9.60;99.90
35804;DHT22;21924;51.934;7.414;2024-03-08T12:38:59;9.70;99.90
35804;DHT22;21924;51.934;7.414;2024-03-08T12:41:43;9.60;99.90
35804;DHT22;21924;51.934;7.414;2024-03-08T12:44:28;9.80;99.90
35804;DHT22;21924;51.934;7.414;2024-03-08T12:47:12;9.50;99.90
35804;DHT22;21924;51.934;7.414;2024-03-08T12:49:57;9.60;99.90
35804;DHT22;21924;51.934;7.414;2024-03-08T12:52:41;9.70;99.90
35804;DHT22;21924;51.934;7.414;2024-03-08T12:55:25;9.60;99.90
35804;DHT22;21924;51.934;7.414;2024-03-08T12:58:09;9.50;99.90
35804;DHT22;21924;51.934;7.414;2024-03-08T13:00:53;9.80;99.90
35804;DHT22;21924;51.934;7.414;2024-03-08T13:03:38;9.80;99.90
35804;DHT22;21924;51.934;7.414;2024-03-08T13:06:22;9.80;99.90
35804;DHT22;21924;51.934;7.414;2024-03-08T13:09:08;10.00;99.90
35804;DHT22;21924;51.934;7.414;2024-03-08T13:11:52;9.80;99.90
35804;DHT22;21924;51.934;7.414;2024-03-08T13:14:40;9.80;99.90
35804;DHT22;21924;51.934;7.414;2024-03-08T13:17:24;9.80;99.90
35804;DHT22;21924;51.934;7.414;2024-03-08T13:20:09;9.90;99.90
35804;DHT22;21924;51.934;7.414;2024-03-08T13:23:00;9.80;99.90
35804;DHT22;21924;51.934;7.414;2024-03-08T13:25:45;9.60;99.90
35804;DHT22;21924;51.934;7.414;2024-03-08T13:28:31;9.70;99.90
35804;DHT22;21924;51.934;7.414;2024-03-08T13:31:20;9.70;99.90
35804;DHT22;21924;51.934;7.414;2024-03-08T13:34:04;10.00;99.90
35804;DHT22;21924;51.934;7.414;2024-03-08T13:36:49;10.00;99.90
35804;DHT22;21924;51.934;7.414;2024-03-08T13:39:35;9.70;99.90
35804;DHT22;21924;51.934;7.414;2024-03-08T13:42:24;9.40;99.90
35804;DHT22;21924;51.934;7.414;2024-03-08T13:45:09;9.50;99.90
35804;DHT22;21924;51.934;7.414;2024-03-08T13:47:56;9.50;99.90
35804;DHT22;21924;51.934;7.414;2024-03-08T13:50:40;9.50;99.90
35804;DHT22;21924;51.934;7.414;2024-03-08T13:53:25;9.40;99.90
35804;DHT22;21924;51.934;7.414;2024-03-08T13:56:09;9.30;99.90
35804;DHT22;21924;51.934;7.414;2024-03-08T13:58:59;9.30;99.90
35804;DHT22;21924;51.934;7.414;2024-03-08T14:01:45;9.10;99.90
35804;DHT22;21924;51.934;7.414;2024-03-08T14:04:29;9.10;99.90
35804;DHT22;21924;51.934;7.414;2024-03-08T14:07:13;9.30;99.90
35804;DHT22;21924;51.934;7.414;2024-03-08T14:09:57;9.30;99.90
35804;DHT22;21924;51.934;7.414;2024-03-08T14:12:43;9.20;99.90
35804;DHT22;21924;51.934;7.414;2024-03-08T14:15:28;9.30;99.90
35804;DHT22;21924;51.934;7.414;2024-03-08T14:18:12;9.30;99.90
35804;DHT22;21924;51.934;7.414;2024-03-08T14:20:59;9.20;99.90
35804;DHT22;21924;51.934;7.414;2024-03-08T14:23:43;9.20;99.90
35804;DHT22;21924;51.934;7.414;2024-03-08T14:33:12;9.50;99.90
35804;DHT22;21924;51.934;7.414;2024-03-08T14:35:57;9.40;99.90
35804;DHT22;21924;51.934;7.414;2024-03-08T14:38:41;9.30;99.90
35804;DHT22;21924;51.934;7.414;2024-03-08T14:41:26;9.50;99.90
35804;DHT22;21924;51.934;7.414;2024-03-08T14:44:11;9.50;99.90
35804;DHT22;21924;51.934;7.414;2024-03-08T14:46:55;9.40;99.90
35804;DHT22;21924;51.934;7.414;2024-03-08T14:49:40;9.40;99.90
35804;DHT22;21924;51.934;7.414;2024-03-08T14:52:24;9.30;99.90
35804;DHT22;21924;51.934;7.414;2024-03-08T15:01:56;9.30;99.90
35804;DHT22;21924;51.934;7.414;2024-03-08T15:04:41;9.30;99.90
35804;DHT22;21924;51.934;7.414;2024-03-08T15:07:26;9.30;99.90
35804;DHT22;21924;51.934;7.414;2024-03-08T15:10:10;9.40;99.90
35804;DHT22;21924;51.934;7.414;2024-03-08T15:13:04;9.30;99.90
35804;DHT22;21924;51.934;7.414;2024-03-08T15:15:58;9.30;99.90
35804;DHT22;21924;51.934;7.414;2024-03-08T15:18:42;9.20;99.90
35804;DHT22;21924;51.934;7.414;2024-03-08T15:21:30;9.10;99.90
35804;DHT22;21924;51.934;7.414;2024-03-08T15:24:26;9.10;99.90
35804;DHT22;21924;51.934;7.414;2024-03-08T15:37:10;9.10;99.90
35804;DHT22;21924;51.934;7.414;2024-03-08T15:47:05;8.90;99.90
35804;DHT22;21924;51.934;7.414;2024-03-08T16:09:50;8.70;99.90
35804;DHT22;21924;51.934;7.414;2024-03-08T16:16:23;8.70;99.90
35804;DHT22;21924;51.934;7.414;2024-03-08T16:22:35;8.70;99.90
35804;DHT22;21924;51.934;7.414;2024-03-08T16:45:38;8.40;99.90
35804;DHT22;21924;51.934;7.414;2024-03-08T16:48:29;8.30;99.90
35804;DHT22;21924;51.934;7.414;2024-03-08T17:01:39;8.10;99.90
35804;DHT22;21924;51.934;7.414;2024-03-08T17:41:01;8.00;99.90
35804;DHT22;21924;51.934;7.414;2024-03-08T17:43:40;7.80;99.90
35804;DHT22;21924;51.934;7.414;2024-03-08T17:46:25;7.60;99.90
35804;DHT22;21924;51.934;7.414;2024-03-08T17:49:09;7.60;99.90
35804;DHT22;21924;51.934;7.414;2024-03-08T17:51:55;7.50;99.90
35804;DHT22;21924;51.934;7.414;2024-03-08T17:57:53;7.40;99.90
35804;DHT22;21924;51.934;7.414;2024-03-08T18:00:44;7.40;99.90
35804;DHT22;21924;51.934;7.414;2024-03-08T18:03:38;7.40;99.90
35804;DHT22;21924;51.934;7.414;2024-03-08T18:06:27;7.40;99.90
35804;DHT22;21924;51.934;7.414;2024-03-08T18:09:11;7.30;99.90
35804;DHT22;21924;51.934;7.414;2024-03-08T18:11:56;7.30;99.90
35804;DHT22;21924;51.934;7.414;2024-03-08T18:14:43;7.20;99.90
35804;DHT22;21924;51.934;7.414;2024-03-08T18:17:28;7.20;99.90
35804;DHT22;21924;51.934;7.414;2024-03-08T18:20:12;7.10;99.90
35804;DHT22;21924;51.934;7.414;2024-03-08T18:22:59;7.00;99.90
35804;DHT22;21924;51.934;7.414;2024-03-08T18:25:46;7.00;99.90
35804;DHT22;21924;51.934;7.414;2024-03-08T18:28:34;7.00;99.90
35804;DHT22;21924;51.934;7.414;2024-03-08T18:31:18;7.10;99.90
35804;DHT22;21924;51.934;7.414;2024-03-08T18:34:05;7.10;99.90
35804;DHT22;21924;51.934;7.414;2024-03-08T18:36:50;7.00;99.90
35804;DHT22;21924;51.934;7.414;2024-03-08T18:39:34;7.00;99.90
35804;DHT22;21924;51.934;7.414;2024-03-08T18:42:28;7.00;99.90
35804;DHT22;21924;51.934;7.414;2024-03-08T18:45:14;6.90;99.90
35804;DHT22;21924;51.934;7.414;2024-03-08T18:48:00;6.90;99.90
35804;DHT22;21924;51.934;7.414;2024-03-08T18:50:44;6.90;99.90
35804;DHT22;21924;51.934;7.414;2024-03-08T18:53:30;7.00;99.90
35804;DHT22;21924;51.934;7.414;2024-03-08T18:56:14;6.90;99.90
35804;DHT22;21924;51.934;7.414;2024-03-08T18:58:58;6.90;99.90
35804;DHT22;21924;51.934;7.414;2024-03-08T19:01:42;6.90;99.90
35804;DHT22;21924;51.934;7.414;2024-03-08T19:04:31;6.90;99.90
35804;DHT22;21924;51.934;7.414;2024-03-08T19:07:15;6.80;99.90
35804;DHT22;21924;51.934;7.414;2024-03-08T19:10:00;6.70;99.90
35804;DHT22;21924;51.934;7.414;2024-03-08T19:12:45;6.70;99.90
35804;DHT22;21924;51.934;7.414;2024-03-08T19:15:30;6.60;99.90
35804;DHT22;21924;51.934;7.414;2024-03-08T19:18:34;6.70;99.90
35804;DHT22;21924;51.934;7.414;2024-03-08T19:21:19;6.70;99.90
35804;DHT22;21924;51.934;7.414;2024-03-08T19:24:05;6.60;99.90
35804;DHT22;21924;51.934;7.414;2024-03-08T19:26:59;6.60;99.90
35804;DHT22;21924;51.934;7.414;2024-03-08T19:36:39;6.40;99.90
35804;DHT22;21924;51.934;7.414;2024-03-08T19:53:45;6.30;99.90
35804;DHT22;21924;51.934;7.414;2024-03-08T19:56:53;6.30;99.90
35804;DHT22;21924;51.934;7.414;2024-03-08T20:13:14;6.20;99.90
35804;DHT22;21924;51.934;7.414;2024-03-08T20:53:53;5.80;99.90
35804;DHT22;21924;51.934;7.414;2024-03-08T21:14:29;5.70;99.90
35804;DHT22;21924;51.934;7.414;2024-03-08T21:47:44;5.50;99.90
35804;DHT22;21924;51.934;7.414;2024-03-08T21:57:41;5.60;99.90
35804;DHT22;21924;51.934;7.414;2024-03-08T22:04:50;5.40;99.90
35804;DHT22;21924;51.934;7.414;2024-03-08T22:11:21;5.30;99.90
35804;DHT22;21924;51.934;7.414;2024-03-08T22:14:24;5.30;99.90
35804;DHT22;21924;51.934;7.414;2024-03-08T22:31:15;5.20;99.90
35804;DHT22;21924;51.934;7.414;2024-03-08T22:34:26;5.20;99.90
35804;DHT22;21924;51.934;7.414;2024-03-08T22:40:53;5.10;99.90
35804;DHT22;21924;51.934;7.414;2024-03-08T22:44:24;5.10;99.90
35804;DHT22;21924;51.934;7.414;2024-03-08T22:47:13;5.00;99.90
35804;DHT22;21924;51.934;7.414;2024-03-08T22:50:03;5.00;99.90
35804;DHT22;21924;51.934;7.414;2024-03-08T22:52:54;5.00;99.90
35804;DHT22;21924;51.934;7.414;2024-03-08T22:59:14;5.00;99.90
35804;DHT22;21924;51.934;7.414;2024-03-08T23:01:58;5.00;99.90
35804;DHT22;21924;51.934;7.414;2024-03-08T23:04:43;4.90;99.90
35804;DHT22;21924;51.934;7.414;2024-03-08T23:07:27;4.90;99.90
35804;DHT22;21924;51.934;7.414;2024-03-08T23:10:11;4.80;99.90
35804;DHT22;21924;51.934;7.414;2024-03-08T23:12:57;4.80;99.90
35804;DHT22;21924;51.934;7.414;2024-03-08T23:15:41;4.80;99.90